sensor_id;sensor_type;location;lat;lon;timestamp;temperature;humidity
14079;DHT22;7115;50.150;8.568;2023-02-28T00:01:26;3.60;90.40
14079;DHT22;7115;50.150;8.568;2023-02-28T00:03:54;3.50;90.40
14079;DHT22;7115;50.150;8.568;2023-02-28T00:06:22;3.50;90.50
14079;DHT22;7115;50.150;8.568;2023-02-28T00:08:50;3.50;90.50
14079;DHT22;7115;50.150;8.568;2023-02-28T00:11:17;3.50;90.50
14079;DHT22;7115;50.150;8.568;2023-02-28T00:13:46;3.40;90.50
14079;DHT22;7115;50.150;8.568;2023-02-28T00:16:15;3.40;90.60
14079;DHT22;7115;50.150;8.568;2023-02-28T00:18:43;3.40;90.70
14079;DHT22;7115;50.150;8.568;2023-02-28T00:21:10;3.30;90.70
14079;DHT22;7115;50.150;8.568;2023-02-28T00:23:38;3.30;90.80
14079;DHT22;7115;50.150;8.568;2023-02-28T00:26:05;3.30;90.80
14079;DHT22;7115;50.150;8.568;2023-02-28T00:28:32;3.30;90.90
14079;DHT22;7115;50.150;8.568;2023-02-28T00:30:59;3.30;91.00
14079;DHT22;7115;50.150;8.568;2023-02-28T00:33:27;3.20;91.00
14079;DHT22;7115;50.150;8.568;2023-02-28T00:36:01;3.20;91.00
14079;DHT22;7115;50.150;8.568;2023-02-28T00:38:30;3.20;91.10
14079;DHT22;7115;50.150;8.568;2023-02-28T00:40:58;3.20;91.10
14079;DHT22;7115;50.150;8.568;2023-02-28T00:43:32;3.20;91.20
14079;DHT22;7115;50.150;8.568;2023-02-28T00:45:59;3.10;91.20
14079;DHT22;7115;50.150;8.568;2023-02-28T00:48:26;3.10;91.20
14079;DHT22;7115;50.150;8.568;2023-02-28T00:50:53;3.10;91.30
14079;DHT22;7115;50.150;8.568;2023-02-28T00:53:20;3.10;91.40
14079;DHT22;7115;50.150;8.568;2023-02-28T00:55:49;3.10;91.50
14079;DHT22;7115;50.150;8.568;2023-02-28T00:58:17;3.10;91.50
14079;DHT22;7115;50.150;8.568;2023-02-28T01:00:44;3.00;91.60
14079;DHT22;7115;50.150;8.568;2023-02-28T01:03:16;3.00;91.70
14079;DHT22;7115;50.150;8.568;2023-02-28T01:05:43;3.00;92.10
14079;DHT22;7115;50.150;8.568;2023-02-28T01:08:10;3.00;91.80
14079;DHT22;7115;50.150;8.568;2023-02-28T01:10:37;3.00;91.90
14079;DHT22;7115;50.150;8.568;2023-02-28T01:13:05;3.00;92.00
14079;DHT22;7115;50.150;8.568;2023-02-28T01:15:33;2.90;92.00
14079;DHT22;7115;50.150;8.568;2023-02-28T01:18:00;2.90;92.10
14079;DHT22;7115;50.150;8.568;2023-02-28T01:20:27;2.90;92.10
14079;DHT22;7115;50.150;8.568;2023-02-28T01:22:54;2.90;92.20
14079;DHT22;7115;50.150;8.568;2023-02-28T01:25:21;2.80;92.20
14079;DHT22;7115;50.150;8.568;2023-02-28T01:27:48;2.80;92.30
14079;DHT22;7115;50.150;8.568;2023-02-28T01:30:15;2.80;92.40
14079;DHT22;7115;50.150;8.568;2023-02-28T01:32:44;2.80;92.40
14079;DHT22;7115;50.150;8.568;2023-02-28T01:35:11;2.80;92.50
14079;DHT22;7115;50.150;8.568;2023-02-28T01:37:37;2.80;92.60
14079;DHT22;7115;50.150;8.568;2023-02-28T01:40:06;2.80;92.70
14079;DHT22;7115;50.150;8.568;2023-02-28T01:42:41;2.80;92.70
14079;DHT22;7115;50.150;8.568;2023-02-28T01:45:20;2.80;92.80
14079;DHT22;7115;50.150;8.568;2023-02-28T01:47:51;2.80;92.90
14079;DHT22;7115;50.150;8.568;2023-02-28T01:50:21;2.70;92.90
14079;DHT22;7115;50.150;8.568;2023-02-28T01:52:49;2.70;92.90
14079;DHT22;7115;50.150;8.568;2023-02-28T01:55:18;2.70;93.00
14079;DHT22;7115;50.150;8.568;2023-02-28T01:57:49;2.70;93.00
14079;DHT22;7115;50.150;8.568;2023-02-28T02:00:19;2.70;93.10
14079;DHT22;7115;50.150;8.568;2023-02-28T02:02:51;2.70;93.10
14079;DHT22;7115;50.150;8.568;2023-02-28T02:05:23;2.70;93.20
14079;DHT22;7115;50.150;8.568;2023-02-28T02:07:54;2.70;93.20
14079;DHT22;7115;50.150;8.568;2023-02-28T02:10:27;2.70;93.20
14079;DHT22;7115;50.150;8.568;2023-02-28T02:13:13;2.70;93.20
14079;DHT22;7115;50.150;8.568;2023-02-28T02:15:52;2.60;93.30
14079;DHT22;7115;50.150;8.568;2023-02-28T02:18:26;2.60;93.30
14079;DHT22;7115;50.150;8.568;2023-02-28T02:21:15;2.60;93.30
14079;DHT22;7115;50.150;8.568;2023-02-28T02:24:09;2.60;93.30
14079;DHT22;7115;50.150;8.568;2023-02-28T02:27:03;2.50;93.30
14079;DHT22;7115;50.150;8.568;2023-02-28T02:29:47;2.50;93.30
14079;DHT22;7115;50.150;8.568;2023-02-28T02:32:33;2.50;93.30
14079;DHT22;7115;50.150;8.568;2023-02-28T02:35:13;2.50;93.30
14079;DHT22;7115;50.150;8.568;2023-02-28T02:37:45;2.50;93.70
14079;DHT22;7115;50.150;8.568;2023-02-28T02:40:17;2.50;93.40
14079;DHT22;7115;50.150;8.568;2023-02-28T02:42:51;2.50;93.40
14079;DHT22;7115;50.150;8.568;2023-02-28T02:45:22;2.40;93.40
14079;DHT22;7115;50.150;8.568;2023-02-28T02:47:51;2.40;93.50
14079;DHT22;7115;50.150;8.568;2023-02-28T02:50:24;2.40;93.50
14079;DHT22;7115;50.150;8.568;2023-02-28T02:52:56;2.40;93.60
14079;DHT22;7115;50.150;8.568;2023-02-28T02:55:24;2.40;93.60
14079;DHT22;7115;50.150;8.568;2023-02-28T02:57:56;2.40;93.70
14079;DHT22;7115;50.150;8.568;2023-02-28T03:00:29;2.40;93.70
14079;DHT22;7115;50.150;8.568;2023-02-28T03:02:57;2.40;93.70
14079;DHT22;7115;50.150;8.568;2023-02-28T03:05:28;2.40;93.80
14079;DHT22;7115;50.150;8.568;2023-02-28T03:07:56;2.40;93.80
14079;DHT22;7115;50.150;8.568;2023-02-28T03:10:30;2.40;93.80
14079;DHT22;7115;50.150;8.568;2023-02-28T03:13:28;2.40;93.90
14079;DHT22;7115;50.150;8.568;2023-02-28T03:16:17;2.40;93.90
14079;DHT22;7115;50.150;8.568;2023-02-28T03:18:57;2.30;93.90
14079;DHT22;7115;50.150;8.568;2023-02-28T03:21:29;2.30;93.90
14079;DHT22;7115;50.150;8.568;2023-02-28T03:24:05;2.20;93.90
14079;DHT22;7115;50.150;8.568;2023-02-28T03:26:36;2.20;94.00
14079;DHT22;7115;50.150;8.568;2023-02-28T03:29:09;2.20;94.00
14079;DHT22;7115;50.150;8.568;2023-02-28T03:31:46;2.20;94.00
14079;DHT22;7115;50.150;8.568;2023-02-28T03:34:19;2.20;94.00
14079;DHT22;7115;50.150;8.568;2023-02-28T03:36:53;2.20;94.10
14079;DHT22;7115;50.150;8.568;2023-02-28T03:39:24;2.20;94.10
14079;DHT22;7115;50.150;8.568;2023-02-28T03:41:57;2.20;94.20
14079;DHT22;7115;50.150;8.568;2023-02-28T03:44:30;2.10;94.10
14079;DHT22;7115;50.150;8.568;2023-02-28T03:47:02;2.10;94.20
14079;DHT22;7115;50.150;8.568;2023-02-28T03:49:32;2.10;94.20
14079;DHT22;7115;50.150;8.568;2023-02-28T03:52:04;2.10;94.30
14079;DHT22;7115;50.150;8.568;2023-02-28T03:54:35;2.10;94.30
14079;DHT22;7115;50.150;8.568;2023-02-28T03:57:07;2.00;94.30
14079;DHT22;7115;50.150;8.568;2023-02-28T03:59:39;2.00;94.30
14079;DHT22;7115;50.150;8.568;2023-02-28T04:02:08;1.90;94.30
14079;DHT22;7115;50.150;8.568;2023-02-28T04:04:35;1.90;94.30
14079;DHT22;7115;50.150;8.568;2023-02-28T04:07:06;1.90;94.40
14079;DHT22;7115;50.150;8.568;2023-02-28T04:09:33;1.80;94.40
14079;DHT22;7115;50.150;8.568;2023-02-28T04:12:00;1.80;94.40
14079;DHT22;7115;50.150;8.568;2023-02-28T04:14:27;1.80;94.50
14079;DHT22;7115;50.150;8.568;2023-02-28T04:16:54;1.80;94.50
14079;DHT22;7115;50.150;8.568;2023-02-28T04:19:21;1.80;94.50
14079;DHT22;7115;50.150;8.568;2023-02-28T04:21:51;1.80;94.50
14079;DHT22;7115;50.150;8.568;2023-02-28T04:24:21;1.90;94.50
14079;DHT22;7115;50.150;8.568;2023-02-28T04:26:50;1.80;94.50
14079;DHT22;7115;50.150;8.568;2023-02-28T04:29:20;1.70;94.50
14079;DHT22;7115;50.150;8.568;2023-02-28T04:31:47;1.70;94.80
14079;DHT22;7115;50.150;8.568;2023-02-28T04:34:16;1.70;94.50
14079;DHT22;7115;50.150;8.568;2023-02-28T04:36:45;1.70;94.60
14079;DHT22;7115;50.150;8.568;2023-02-28T04:39:12;1.70;94.60
14079;DHT22;7115;50.150;8.568;2023-02-28T04:41:41;1.70;94.60
14079;DHT22;7115;50.150;8.568;2023-02-28T04:44:08;1.70;94.60
14079;DHT22;7115;50.150;8.568;2023-02-28T04:46:35;1.70;94.70
14079;DHT22;7115;50.150;8.568;2023-02-28T04:49:02;1.70;94.60
14079;DHT22;7115;50.150;8.568;2023-02-28T04:51:29;1.70;94.60
14079;DHT22;7115;50.150;8.568;2023-02-28T04:53:56;1.70;94.60
14079;DHT22;7115;50.150;8.568;2023-02-28T04:56:23;1.70;94.60
14079;DHT22;7115;50.150;8.568;2023-02-28T04:58:51;1.70;94.60
14079;DHT22;7115;50.150;8.568;2023-02-28T05:01:22;1.70;94.60
14079;DHT22;7115;50.150;8.568;2023-02-28T05:03:55;1.70;94.60
14079;DHT22;7115;50.150;8.568;2023-02-28T05:06:23;1.70;94.60
14079;DHT22;7115;50.150;8.568;2023-02-28T05:08:51;1.70;94.60
14079;DHT22;7115;50.150;8.568;2023-02-28T05:11:19;1.80;94.60
14079;DHT22;7115;50.150;8.568;2023-02-28T05:13:48;1.80;94.60
14079;DHT22;7115;50.150;8.568;2023-02-28T05:16:17;1.80;94.60
14079;DHT22;7115;50.150;8.568;2023-02-28T05:18:44;1.80;94.60
14079;DHT22;7115;50.150;8.568;2023-02-28T05:21:24;1.90;94.60
14079;DHT22;7115;50.150;8.568;2023-02-28T05:23:53;1.90;94.60
14079;DHT22;7115;50.150;8.568;2023-02-28T05:26:20;1.90;94.50
14079;DHT22;7115;50.150;8.568;2023-02-28T05:28:47;1.90;94.50
14079;DHT22;7115;50.150;8.568;2023-02-28T05:31:16;1.90;94.50
14079;DHT22;7115;50.150;8.568;2023-02-28T05:33:43;2.00;94.60
14079;DHT22;7115;50.150;8.568;2023-02-28T05:36:10;2.00;94.50
14079;DHT22;7115;50.150;8.568;2023-02-28T05:38:37;2.00;94.50
14079;DHT22;7115;50.150;8.568;2023-02-28T05:41:06;2.00;94.50
14079;DHT22;7115;50.150;8.568;2023-02-28T05:43:33;2.00;94.50
14079;DHT22;7115;50.150;8.568;2023-02-28T05:46:03;2.10;94.50
14079;DHT22;7115;50.150;8.568;2023-02-28T05:48:32;2.00;94.50
14079;DHT22;7115;50.150;8.568;2023-02-28T05:50:59;2.00;94.50
14079;DHT22;7115;50.150;8.568;2023-02-28T05:53:26;2.00;94.50
14079;DHT22;7115;50.150;8.568;2023-02-28T05:55:53;2.00;94.50
14079;DHT22;7115;50.150;8.568;2023-02-28T05:58:21;2.00;94.60
14079;DHT22;7115;50.150;8.568;2023-02-28T06:00:48;2.00;94.60
14079;DHT22;7115;50.150;8.568;2023-02-28T06:03:15;2.00;94.60
14079;DHT22;7115;50.150;8.568;2023-02-28T06:05:44;2.10;94.70
14079;DHT22;7115;50.150;8.568;2023-02-28T06:08:10;2.00;94.60
14079;DHT22;7115;50.150;8.568;2023-02-28T06:10:37;2.00;94.60
14079;DHT22;7115;50.150;8.568;2023-02-28T06:13:05;2.00;94.60
14079;DHT22;7115;50.150;8.568;2023-02-28T06:15:32;2.00;94.90
14079;DHT22;7115;50.150;8.568;2023-02-28T06:17:59;2.00;94.60
14079;DHT22;7115;50.150;8.568;2023-02-28T06:20:27;2.00;94.60
14079;DHT22;7115;50.150;8.568;2023-02-28T06:22:57;1.90;94.60
14079;DHT22;7115;50.150;8.568;2023-02-28T06:25:27;1.90;94.60
14079;DHT22;7115;50.150;8.568;2023-02-28T06:27:55;1.90;94.60
14079;DHT22;7115;50.150;8.568;2023-02-28T06:30:22;1.90;94.60
14079;DHT22;7115;50.150;8.568;2023-02-28T06:32:54;1.80;94.60
14079;DHT22;7115;50.150;8.568;2023-02-28T06:35:21;1.90;94.60
14079;DHT22;7115;50.150;8.568;2023-02-28T06:37:48;2.00;94.80
14079;DHT22;7115;50.150;8.568;2023-02-28T06:40:17;2.10;94.80
14079;DHT22;7115;50.150;8.568;2023-02-28T06:42:43;2.30;94.90
14079;DHT22;7115;50.150;8.568;2023-02-28T06:45:11;2.50;95.00
14079;DHT22;7115;50.150;8.568;2023-02-28T06:47:39;2.80;95.00
14079;DHT22;7115;50.150;8.568;2023-02-28T06:50:08;3.10;95.00
14079;DHT22;7115;50.150;8.568;2023-02-28T06:52:35;3.40;94.90
14079;DHT22;7115;50.150;8.568;2023-02-28T06:55:06;3.80;94.80
14079;DHT22;7115;50.150;8.568;2023-02-28T06:57:35;4.00;94.70
14079;DHT22;7115;50.150;8.568;2023-02-28T07:00:06;4.40;94.60
14079;DHT22;7115;50.150;8.568;2023-02-28T07:02:34;4.80;94.50
14079;DHT22;7115;50.150;8.568;2023-02-28T07:05:01;5.30;94.30
14079;DHT22;7115;50.150;8.568;2023-02-28T07:07:28;5.70;94.00
14079;DHT22;7115;50.150;8.568;2023-02-28T07:09:55;6.10;93.80
14079;DHT22;7115;50.150;8.568;2023-02-28T07:12:23;6.60;93.60
14079;DHT22;7115;50.150;8.568;2023-02-28T07:14:51;7.10;93.30
14079;DHT22;7115;50.150;8.568;2023-02-28T07:17:18;7.60;92.90
14079;DHT22;7115;50.150;8.568;2023-02-28T07:19:45;8.00;92.50
14079;DHT22;7115;50.150;8.568;2023-02-28T07:22:12;8.40;92.10
14079;DHT22;7115;50.150;8.568;2023-02-28T07:24:41;8.80;91.70
14079;DHT22;7115;50.150;8.568;2023-02-28T07:27:08;9.20;91.40
14079;DHT22;7115;50.150;8.568;2023-02-28T07:29:35;9.50;90.90
14079;DHT22;7115;50.150;8.568;2023-02-28T07:32:04;9.80;90.50
14079;DHT22;7115;50.150;8.568;2023-02-28T07:34:31;10.20;90.20
14079;DHT22;7115;50.150;8.568;2023-02-28T07:36:58;10.40;89.70
14079;DHT22;7115;50.150;8.568;2023-02-28T07:39:26;10.80;88.80
14079;DHT22;7115;50.150;8.568;2023-02-28T07:41:52;11.00;87.80
14079;DHT22;7115;50.150;8.568;2023-02-28T07:44:19;11.20;87.00
14079;DHT22;7115;50.150;8.568;2023-02-28T07:46:47;11.50;86.30
14079;DHT22;7115;50.150;8.568;2023-02-28T07:49:15;11.80;85.40
14079;DHT22;7115;50.150;8.568;2023-02-28T07:51:42;12.10;84.60
14079;DHT22;7115;50.150;8.568;2023-02-28T07:54:09;12.50;83.90
14079;DHT22;7115;50.150;8.568;2023-02-28T07:56:36;12.90;83.00
14079;DHT22;7115;50.150;8.568;2023-02-28T07:59:03;13.20;81.90
14079;DHT22;7115;50.150;8.568;2023-02-28T08:01:30;13.40;80.60
14079;DHT22;7115;50.150;8.568;2023-02-28T08:03:57;13.50;79.50
14079;DHT22;7115;50.150;8.568;2023-02-28T08:06:26;13.80;78.60
14079;DHT22;7115;50.150;8.568;2023-02-28T08:08:53;14.00;77.60
14079;DHT22;7115;50.150;8.568;2023-02-28T08:11:20;14.30;76.90
14079;DHT22;7115;50.150;8.568;2023-02-28T08:13:47;14.60;75.90
14079;DHT22;7115;50.150;8.568;2023-02-28T08:16:14;14.80;74.80
14079;DHT22;7115;50.150;8.568;2023-02-28T08:18:49;14.90;73.50
14079;DHT22;7115;50.150;8.568;2023-02-28T08:21:16;15.00;72.60
14079;DHT22;7115;50.150;8.568;2023-02-28T08:23:46;15.10;71.90
14079;DHT22;7115;50.150;8.568;2023-02-28T08:26:13;15.40;71.10
14079;DHT22;7115;50.150;8.568;2023-02-28T08:28:40;15.80;70.40
14079;DHT22;7115;50.150;8.568;2023-02-28T08:31:08;16.00;69.30
14079;DHT22;7115;50.150;8.568;2023-02-28T08:33:35;16.20;68.40
14079;DHT22;7115;50.150;8.568;2023-02-28T08:36:03;16.30;67.30
14079;DHT22;7115;50.150;8.568;2023-02-28T08:38:30;16.30;66.70
14079;DHT22;7115;50.150;8.568;2023-02-28T08:41:00;16.50;66.20
14079;DHT22;7115;50.150;8.568;2023-02-28T08:43:27;16.60;65.30
14079;DHT22;7115;50.150;8.568;2023-02-28T08:45:55;16.60;64.60
14079;DHT22;7115;50.150;8.568;2023-02-28T08:48:23;16.70;63.80
14079;DHT22;7115;50.150;8.568;2023-02-28T08:50:57;16.70;63.00
14079;DHT22;7115;50.150;8.568;2023-02-28T08:53:33;16.70;61.90
14079;DHT22;7115;50.150;8.568;2023-02-28T08:56:03;16.40;61.50
14079;DHT22;7115;50.150;8.568;2023-02-28T08:58:30;16.30;61.10
14079;DHT22;7115;50.150;8.568;2023-02-28T09:00:57;16.30;60.50
14079;DHT22;7115;50.150;8.568;2023-02-28T09:03:24;16.30;59.80
14079;DHT22;7115;50.150;8.568;2023-02-28T09:05:55;16.10;59.20
14079;DHT22;7115;50.150;8.568;2023-02-28T09:08:23;15.70;58.90
14079;DHT22;7115;50.150;8.568;2023-02-28T09:10:50;15.40;58.80
14079;DHT22;7115;50.150;8.568;2023-02-28T09:13:19;15.20;58.60
14079;DHT22;7115;50.150;8.568;2023-02-28T09:15:46;15.00;58.30
14079;DHT22;7115;50.150;8.568;2023-02-28T09:18:13;14.70;58.10
14079;DHT22;7115;50.150;8.568;2023-02-28T09:20:40;14.30;58.00
14079;DHT22;7115;50.150;8.568;2023-02-28T09:23:08;14.20;58.10
14079;DHT22;7115;50.150;8.568;2023-02-28T09:25:36;14.20;58.10
14079;DHT22;7115;50.150;8.568;2023-02-28T09:28:03;14.20;57.90
14079;DHT22;7115;50.150;8.568;2023-02-28T09:30:32;14.10;57.70
14079;DHT22;7115;50.150;8.568;2023-02-28T09:32:59;13.80;57.20
14079;DHT22;7115;50.150;8.568;2023-02-28T09:35:25;13.20;57.30
14079;DHT22;7115;50.150;8.568;2023-02-28T09:37:53;12.90;57.70
14079;DHT22;7115;50.150;8.568;2023-02-28T09:40:21;12.50;57.70
14079;DHT22;7115;50.150;8.568;2023-02-28T09:42:52;12.40;58.10
14079;DHT22;7115;50.150;8.568;2023-02-28T09:45:24;12.40;58.10
14079;DHT22;7115;50.150;8.568;2023-02-28T09:47:55;12.20;57.80
14079;DHT22;7115;50.150;8.568;2023-02-28T09:50:31;12.30;58.20
14079;DHT22;7115;50.150;8.568;2023-02-28T09:53:02;12.80;58.10
14079;DHT22;7115;50.150;8.568;2023-02-28T09:55:33;13.10;57.70
14079;DHT22;7115;50.150;8.568;2023-02-28T09:58:18;13.40;57.40
14079;DHT22;7115;50.150;8.568;2023-02-28T10:00:55;13.40;57.10
14079;DHT22;7115;50.150;8.568;2023-02-28T10:03:30;13.60;57.00
14079;DHT22;7115;50.150;8.568;2023-02-28T10:06:06;13.20;56.60
14079;DHT22;7115;50.150;8.568;2023-02-28T10:08:38;12.40;56.50
14079;DHT22;7115;50.150;8.568;2023-02-28T10:11:12;11.60;57.00
14079;DHT22;7115;50.150;8.568;2023-02-28T10:13:47;10.90;57.50
14079;DHT22;7115;50.150;8.568;2023-02-28T10:16:21;11.00;58.30
14079;DHT22;7115;50.150;8.568;2023-02-28T10:18:56;11.30;58.40
14079;DHT22;7115;50.150;8.568;2023-02-28T10:21:27;11.30;58.10
14079;DHT22;7115;50.150;8.568;2023-02-28T10:24:02;11.10;58.00
14079;DHT22;7115;50.150;8.568;2023-02-28T10:26:31;10.80;58.30
14079;DHT22;7115;50.150;8.568;2023-02-28T10:28:58;10.50;58.40
14079;DHT22;7115;50.150;8.568;2023-02-28T10:31:26;10.10;58.60
14079;DHT22;7115;50.150;8.568;2023-02-28T10:33:55;9.50;58.80
14079;DHT22;7115;50.150;8.568;2023-02-28T10:36:22;9.30;59.30
14079;DHT22;7115;50.150;8.568;2023-02-28T10:38:49;9.00;59.40
14079;DHT22;7115;50.150;8.568;2023-02-28T10:41:27;8.80;59.70
14079;DHT22;7115;50.150;8.568;2023-02-28T10:44:14;8.50;60.10
14079;DHT22;7115;50.150;8.568;2023-02-28T10:46:42;8.10;60.40
14079;DHT22;7115;50.150;8.568;2023-02-28T10:49:17;7.80;60.90
14079;DHT22;7115;50.150;8.568;2023-02-28T10:51:53;7.50;61.20
14079;DHT22;7115;50.150;8.568;2023-02-28T10:54:24;7.30;61.70
14079;DHT22;7115;50.150;8.568;2023-02-28T10:57:18;7.30;62.20
14079;DHT22;7115;50.150;8.568;2023-02-28T10:59:46;7.50;62.80
14079;DHT22;7115;50.150;8.568;2023-02-28T11:02:32;8.00;63.20
14079;DHT22;7115;50.150;8.568;2023-02-28T11:05:01;8.50;63.00
14079;DHT22;7115;50.150;8.568;2023-02-28T11:07:28;8.80;62.70
14079;DHT22;7115;50.150;8.568;2023-02-28T11:10:20;9.10;62.60
14079;DHT22;7115;50.150;8.568;2023-02-28T11:12:49;9.50;62.60
14079;DHT22;7115;50.150;8.568;2023-02-28T11:15:23;9.90;62.50
14079;DHT22;7115;50.150;8.568;2023-02-28T11:17:57;10.50;62.50
14079;DHT22;7115;50.150;8.568;2023-02-28T11:20:28;11.20;62.20
14079;DHT22;7115;50.150;8.568;2023-02-28T11:22:56;12.10;61.60
14079;DHT22;7115;50.150;8.568;2023-02-28T11:25:26;12.90;60.90
14079;DHT22;7115;50.150;8.568;2023-02-28T11:27:54;13.80;59.80
14079;DHT22;7115;50.150;8.568;2023-02-28T11:30:30;14.00;59.00
14079;DHT22;7115;50.150;8.568;2023-02-28T11:32:57;14.10;58.50
14079;DHT22;7115;50.150;8.568;2023-02-28T11:35:29;14.10;58.30
14079;DHT22;7115;50.150;8.568;2023-02-28T11:37:57;14.10;57.80
14079;DHT22;7115;50.150;8.568;2023-02-28T11:40:30;14.00;57.50
14079;DHT22;7115;50.150;8.568;2023-02-28T11:43:05;13.70;57.40
14079;DHT22;7115;50.150;8.568;2023-02-28T11:45:54;13.30;57.20
14079;DHT22;7115;50.150;8.568;2023-02-28T11:48:29;13.00;57.40
14079;DHT22;7115;50.150;8.568;2023-02-28T11:51:11;12.70;57.60
14079;DHT22;7115;50.150;8.568;2023-02-28T11:56:46;12.10;57.90
14079;DHT22;7115;50.150;8.568;2023-02-28T11:59:36;11.90;58.20
14079;DHT22;7115;50.150;8.568;2023-02-28T12:02:24;11.60;58.00
14079;DHT22;7115;50.150;8.568;2023-02-28T12:05:08;11.30;58.30
14079;DHT22;7115;50.150;8.568;2023-02-28T12:07:46;11.10;58.60
14079;DHT22;7115;50.150;8.568;2023-02-28T12:10:21;11.00;58.90
14079;DHT22;7115;50.150;8.568;2023-02-28T12:13:01;10.90;59.00
14079;DHT22;7115;50.150;8.568;2023-02-28T12:15:47;10.70;59.00
14079;DHT22;7115;50.150;8.568;2023-02-28T12:18:30;10.50;59.30
14079;DHT22;7115;50.150;8.568;2023-02-28T12:21:04;10.20;59.30
14079;DHT22;7115;50.150;8.568;2023-02-28T12:23:57;9.90;59.50
14079;DHT22;7115;50.150;8.568;2023-02-28T12:26:32;9.70;59.90
14079;DHT22;7115;50.150;8.568;2023-02-28T12:29:08;9.70;60.30
14079;DHT22;7115;50.150;8.568;2023-02-28T12:31:40;9.60;60.40
14079;DHT22;7115;50.150;8.568;2023-02-28T12:34:12;9.50;60.50
14079;DHT22;7115;50.150;8.568;2023-02-28T12:36:41;9.50;60.70
14079;DHT22;7115;50.150;8.568;2023-02-28T12:39:14;9.50;60.80
14079;DHT22;7115;50.150;8.568;2023-02-28T12:41:46;9.50;60.90
14079;DHT22;7115;50.150;8.568;2023-02-28T12:44:17;9.50;60.90
14079;DHT22;7115;50.150;8.568;2023-02-28T12:46:48;9.50;61.00
14079;DHT22;7115;50.150;8.568;2023-02-28T12:49:19;9.40;61.00
14079;DHT22;7115;50.150;8.568;2023-02-28T12:51:48;9.30;60.90
14079;DHT22;7115;50.150;8.568;2023-02-28T12:54:23;9.30;61.10
14079;DHT22;7115;50.150;8.568;2023-02-28T12:56:56;9.30;61.20
14079;DHT22;7115;50.150;8.568;2023-02-28T12:59:32;9.50;61.40
14079;DHT22;7115;50.150;8.568;2023-02-28T13:02:36;9.80;61.30
14079;DHT22;7115;50.150;8.568;2023-02-28T13:05:29;9.90;60.80
14079;DHT22;7115;50.150;8.568;2023-02-28T13:08:19;9.70;60.60
14079;DHT22;7115;50.150;8.568;2023-02-28T13:10:51;9.60;60.70
14079;DHT22;7115;50.150;8.568;2023-02-28T13:13:23;9.60;60.90
14079;DHT22;7115;50.150;8.568;2023-02-28T13:16:03;9.70;61.20
14079;DHT22;7115;50.150;8.568;2023-02-28T13:18:36;9.90;61.30
14079;DHT22;7115;50.150;8.568;2023-02-28T13:21:05;9.90;61.10
14079;DHT22;7115;50.150;8.568;2023-02-28T13:23:55;9.80;60.90
14079;DHT22;7115;50.150;8.568;2023-02-28T13:29:38;9.40;61.20
14079;DHT22;7115;50.150;8.568;2023-02-28T13:32:34;9.30;61.30
14079;DHT22;7115;50.150;8.568;2023-02-28T13:38:17;9.30;61.90
14079;DHT22;7115;50.150;8.568;2023-02-28T13:40:48;9.40;62.00
14079;DHT22;7115;50.150;8.568;2023-02-28T13:43:17;9.50;62.20
14079;DHT22;7115;50.150;8.568;2023-02-28T13:46:12;9.60;62.10
14079;DHT22;7115;50.150;8.568;2023-02-28T13:48:41;9.40;62.00
14079;DHT22;7115;50.150;8.568;2023-02-28T13:51:35;9.40;62.30
14079;DHT22;7115;50.150;8.568;2023-02-28T13:54:22;9.50;62.50
14079;DHT22;7115;50.150;8.568;2023-02-28T13:57:01;9.50;62.50
14079;DHT22;7115;50.150;8.568;2023-02-28T13:59:35;9.60;62.50
14079;DHT22;7115;50.150;8.568;2023-02-28T14:05:14;9.30;62.40
14079;DHT22;7115;50.150;8.568;2023-02-28T14:07:44;9.20;62.70
14079;DHT22;7115;50.150;8.568;2023-02-28T14:10:26;9.30;62.90
14079;DHT22;7115;50.150;8.568;2023-02-28T14:13:00;9.10;62.70
14079;DHT22;7115;50.150;8.568;2023-02-28T14:18:23;8.90;63.10
14079;DHT22;7115;50.150;8.568;2023-02-28T14:20:57;9.00;63.30
14079;DHT22;7115;50.150;8.568;2023-02-28T14:23:35;9.00;63.20
14079;DHT22;7115;50.150;8.568;2023-02-28T14:26:10;9.10;63.30
14079;DHT22;7115;50.150;8.568;2023-02-28T14:28:50;9.20;63.40
14079;DHT22;7115;50.150;8.568;2023-02-28T14:31:29;9.40;63.40
14079;DHT22;7115;50.150;8.568;2023-02-28T14:34:13;9.50;63.40
14079;DHT22;7115;50.150;8.568;2023-02-28T14:36:44;9.40;62.90
14079;DHT22;7115;50.150;8.568;2023-02-28T14:39:14;9.30;63.00
14079;DHT22;7115;50.150;8.568;2023-02-28T14:41:42;9.30;63.30
14079;DHT22;7115;50.150;8.568;2023-02-28T14:44:15;9.40;63.50
14079;DHT22;7115;50.150;8.568;2023-02-28T14:46:43;9.60;63.70
14079;DHT22;7115;50.150;8.568;2023-02-28T14:49:18;9.60;63.60
14079;DHT22;7115;50.150;8.568;2023-02-28T14:51:45;9.70;63.50
14079;DHT22;7115;50.150;8.568;2023-02-28T14:54:15;9.80;63.50
14079;DHT22;7115;50.150;8.568;2023-02-28T14:56:43;9.90;63.20
14079;DHT22;7115;50.150;8.568;2023-02-28T14:59:27;9.70;63.00
14079;DHT22;7115;50.150;8.568;2023-02-28T15:02:14;9.50;62.90
14079;DHT22;7115;50.150;8.568;2023-02-28T15:04:42;9.20;63.00
14079;DHT22;7115;50.150;8.568;2023-02-28T15:07:10;8.90;63.10
14079;DHT22;7115;50.150;8.568;2023-02-28T15:09:37;8.80;63.40
14079;DHT22;7115;50.150;8.568;2023-02-28T15:12:05;8.80;63.80
14079;DHT22;7115;50.150;8.568;2023-02-28T15:14:32;8.80;64.00
14079;DHT22;7115;50.150;8.568;2023-02-28T15:17:03;8.90;64.00
14079;DHT22;7115;50.150;8.568;2023-02-28T15:19:36;8.90;64.10
14079;DHT22;7115;50.150;8.568;2023-02-28T15:22:13;8.90;64.30
14079;DHT22;7115;50.150;8.568;2023-02-28T15:24:45;8.90;65.20
14079;DHT22;7115;50.150;8.568;2023-02-28T15:27:15;9.00;64.60
14079;DHT22;7115;50.150;8.568;2023-02-28T15:29:48;9.10;64.60
14079;DHT22;7115;50.150;8.568;2023-02-28T15:32:25;9.10;64.30
14079;DHT22;7115;50.150;8.568;2023-02-28T15:34:53;9.00;64.30
14079;DHT22;7115;50.150;8.568;2023-02-28T15:37:39;8.90;64.50
14079;DHT22;7115;50.150;8.568;2023-02-28T15:40:14;8.70;64.80
14079;DHT22;7115;50.150;8.568;2023-02-28T15:42:41;8.70;65.00
14079;DHT22;7115;50.150;8.568;2023-02-28T15:45:28;8.60;65.10
14079;DHT22;7115;50.150;8.568;2023-02-28T15:47:55;8.50;65.50
14079;DHT22;7115;50.150;8.568;2023-02-28T15:50:28;8.40;65.60
14079;DHT22;7115;50.150;8.568;2023-02-28T15:53:00;8.30;65.90
14079;DHT22;7115;50.150;8.568;2023-02-28T15:55:30;8.20;66.10
14079;DHT22;7115;50.150;8.568;2023-02-28T15:58:00;8.00;66.50
14079;DHT22;7115;50.150;8.568;2023-02-28T16:00:29;7.90;66.80
14079;DHT22;7115;50.150;8.568;2023-02-28T16:02:56;7.90;67.10
14079;DHT22;7115;50.150;8.568;2023-02-28T16:05:26;7.80;67.30
14079;DHT22;7115;50.150;8.568;2023-02-28T16:08:08;7.80;67.60
14079;DHT22;7115;50.150;8.568;2023-02-28T16:10:37;7.80;67.70
14079;DHT22;7115;50.150;8.568;2023-02-28T16:13:04;7.80;67.80
14079;DHT22;7115;50.150;8.568;2023-02-28T16:15:37;7.80;68.00
14079;DHT22;7115;50.150;8.568;2023-02-28T16:18:09;7.80;68.30
14079;DHT22;7115;50.150;8.568;2023-02-28T16:20:37;7.80;68.50
14079;DHT22;7115;50.150;8.568;2023-02-28T16:23:05;7.80;68.60
14079;DHT22;7115;50.150;8.568;2023-02-28T16:25:35;7.80;68.70
14079;DHT22;7115;50.150;8.568;2023-02-28T16:28:03;7.70;68.80
14079;DHT22;7115;50.150;8.568;2023-02-28T16:30:30;7.70;69.00
14079;DHT22;7115;50.150;8.568;2023-02-28T16:33:00;7.70;69.10
14079;DHT22;7115;50.150;8.568;2023-02-28T16:35:27;7.70;69.20
14079;DHT22;7115;50.150;8.568;2023-02-28T16:37:54;7.70;69.40
14079;DHT22;7115;50.150;8.568;2023-02-28T16:40:24;7.70;69.60